Time;durP1;ratioP1;P1;durP2;ratioP2;P2;SDS_P1;SDS_P2;PMS_P1;PMS_P2;Temp;Humidity;BMP_temperature;BMP_pressure;BME280_temperature;BME280_humidity;BME280_pressure;Samples;Min_cycle;Max_cycle;Signal;HPM_P1;HPM_P2
2023/01/31 00:01:14;;;;;;;14.30;4.63;;;5.20;99.90;;;;;;5019971;28;20457;-55
2023/01/31 00:03:41;;;;;;;22.87;5.00;;;5.30;99.90;;;;;;5019580;28;20478;-55
2023/01/31 00:06:18;;;;;;;20.70;6.97;;;5.30;99.90;;;;;;5019955;28;20461;-56
2023/01/31 00:08:46;;;;;;;19.13;4.20;;;5.30;99.90;;;;;;5019966;28;20438;-56
2023/01/31 00:11:14;;;;;;;28.90;5.30;;;5.30;99.90;;;;;;5019808;28;20453;-56
2023/01/31 00:13:41;;;;;;;17.97;5.03;;;5.30;99.90;;;;;;5019960;28;20482;-56
2023/01/31 00:16:09;;;;;;;12.17;4.20;;;5.40;99.90;;;;;;5019899;28;20782;-56
2023/01/31 00:18:37;;;;;;;19.63;4.00;;;5.40;99.90;;;;;;5019816;28;20450;-56
2023/01/31 00:21:06;;;;;;;22.37;5.40;;;5.40;99.90;;;;;;5019730;28;20451;-56
2023/01/31 00:23:35;;;;;;;23.73;5.00;;;5.40;99.90;;;;;;5019624;28;20497;-56
2023/01/31 00:26:10;;;;;;;23.97;4.13;;;5.30;99.90;;;;;;5019412;28;20444;-56
2023/01/31 00:28:36;;;;;;;17.97;4.37;;;5.30;99.90;;;;;;5019745;28;20451;-56
2023/01/31 00:31:03;;;;;;;11.27;4.77;;;5.40;99.90;;;;;;5020054;28;20442;-56
2023/01/31 00:33:30;;;;;;;17.47;4.63;;;5.30;99.90;;;;;;5019349;28;20979;-56
2023/01/31 00:35:57;;;;;;;14.97;4.20;;;5.30;99.90;;;;;;5019746;28;20447;-56
2023/01/31 00:38:23;;;;;;;20.10;4.10;;;5.30;99.90;;;;;;5019579;28;20580;-56
2023/01/31 00:40:55;;;;;;;15.40;3.80;;;5.20;99.90;;;;;;5019673;28;20510;-56
2023/01/31 00:43:22;;;;;;;19.47;4.60;;;5.30;99.90;;;;;;5019325;28;20485;-56
2023/01/31 00:45:48;;;;;;;24.07;4.70;;;5.30;99.90;;;;;;5019540;28;20446;-56
2023/01/31 00:48:15;;;;;;;28.10;5.27;;;5.20;99.90;;;;;;5019584;28;20447;-56
2023/01/31 00:50:42;;;;;;;21.77;4.60;;;5.20;99.90;;;;;;5019763;28;20451;-55
2023/01/31 00:53:09;;;;;;;22.57;4.80;;;5.10;99.90;;;;;;5018597;28;20465;-55
2023/01/31 00:55:36;;;;;;;22.23;5.70;;;5.10;99.90;;;;;;5015575;28;20952;-55
2023/01/31 00:58:04;;;;;;;20.50;5.10;;;5.10;99.90;;;;;;5016513;28;20440;-55
2023/01/31 01:00:32;;;;;;;16.23;4.10;;;5.00;99.90;;;;;;5016328;28;20462;-55
2023/01/31 01:02:59;;;;;;;13.83;4.00;;;5.00;99.90;;;;;;5016193;28;20498;-55
2023/01/31 01:05:25;;;;;;;21.20;4.80;;;5.00;99.90;;;;;;5016297;28;20450;-55
2023/01/31 01:07:52;;;;;;;15.60;5.73;;;5.10;99.90;;;;;;5016258;28;20458;-55
2023/01/31 01:10:19;;;;;;;15.70;4.23;;;5.00;99.90;;;;;;5016145;28;20456;-55
2023/01/31 01:12:46;;;;;;;15.07;3.90;;;5.00;99.90;;;;;;5016021;28;20466;-56
2023/01/31 01:15:14;;;;;;;18.03;4.00;;;5.10;99.90;;;;;;5016158;28;20460;-55
2023/01/31 01:17:41;;;;;;;17.87;4.17;;;5.00;99.90;;;;;;5016134;28;20466;-55
2023/01/31 01:20:09;;;;;;;12.23;4.20;;;5.00;99.90;;;;;;5016006;28;20458;-55
2023/01/31 01:22:37;;;;;;;16.10;5.03;;;5.00;99.90;;;;;;5015783;28;20506;-55
2023/01/31 01:25:04;;;;;;;14.70;4.03;;;5.10;99.90;;;;;;5015940;28;20535;-55
2023/01/31 01:27:31;;;;;;;17.13;4.30;;;5.10;99.90;;;;;;5015885;28;20458;-55
2023/01/31 01:29:58;;;;;;;18.33;4.20;;;5.10;99.90;;;;;;5016077;28;20432;-55
2023/01/31 01:32:26;;;;;;;15.13;3.97;;;5.00;99.90;;;;;;5015541;28;20457;-55
2023/01/31 01:34:53;;;;;;;21.53;5.03;;;5.10;99.90;;;;;;5015686;28;20876;-55
2023/01/31 01:37:20;;;;;;;19.60;4.67;;;5.10;99.90;;;;;;5015287;28;20919;-56
2023/01/31 01:39:47;;;;;;;25.67;5.50;;;5.20;99.90;;;;;;5015892;28;20436;-55
2023/01/31 01:42:15;;;;;;;17.13;5.17;;;5.20;99.90;;;;;;5015550;28;20517;-56
2023/01/31 01:44:54;;;;;;;21.33;5.73;;;5.10;99.90;;;;;;5015539;28;20436;-55
2023/01/31 01:47:35;;;;;;;13.70;4.00;;;5.10;99.90;;;;;;5015543;28;20431;-55
2023/01/31 01:50:07;;;;;;;18.33;4.53;;;5.20;99.90;;;;;;5015225;28;20454;-55
2023/01/31 01:52:38;;;;;;;13.60;4.33;;;5.20;99.90;;;;;;5015260;28;20473;-56
2023/01/31 01:55:11;;;;;;;13.93;4.20;;;5.30;99.90;;;;;;5015743;28;20432;-56
2023/01/31 01:57:41;;;;;;;10.80;3.50;;;5.30;99.90;;;;;;5015866;28;20435;-55
2023/01/31 02:00:13;;;;;;;18.93;4.37;;;5.20;99.90;;;;;;5015172;28;20455;-55
2023/01/31 02:02:42;;;;;;;12.57;4.57;;;5.30;99.90;;;;;;5015111;28;20467;-58
2023/01/31 02:05:11;;;;;;;19.17;4.47;;;5.30;99.90;;;;;;5014799;28;20461;-57
2023/01/31 02:07:38;;;;;;;13.23;3.93;;;5.40;99.90;;;;;;5015250;28;20443;-57
2023/01/31 02:10:12;;;;;;;14.07;4.97;;;5.40;99.90;;;;;;5015091;28;20824;-58
2023/01/31 02:12:39;;;;;;;20.10;5.17;;;5.40;99.90;;;;;;5013605;28;20478;-58
2023/01/31 02:15:07;;;;;;;33.00;5.53;;;5.50;99.90;;;;;;5014981;28;20477;-56
2023/01/31 02:17:34;;;;;;;12.97;4.20;;;5.40;99.90;;;;;;5015284;28;20431;-56
2023/01/31 02:20:16;;;;;;;15.77;4.30;;;5.50;99.90;;;;;;5014866;28;20459;-58
2023/01/31 02:22:53;;;;;;;16.13;4.10;;;5.50;99.90;;;;;;5014236;28;20485;-58
2023/01/31 02:25:47;;;;;;;25.20;5.00;;;5.50;99.90;;;;;;5014797;28;20453;-57
2023/01/31 02:28:39;;;;;;;18.80;4.30;;;5.50;99.90;;;;;;5006547;28;20455;-56
2023/01/31 02:31:32;;;;;;;13.30;3.97;;;5.50;99.90;;;;;;5013261;28;20948;-57
2023/01/31 02:34:09;;;;;;;18.60;4.70;;;5.50;99.90;;;;;;5014638;28;20825;-55
2023/01/31 02:36:45;;;;;;;13.37;5.60;;;5.40;99.90;;;;;;5014255;28;20907;-55
2023/01/31 02:39:19;;;;;;;12.63;4.93;;;5.40;99.90;;;;;;5014334;28;20455;-55
2023/01/31 02:41:54;;;;;;;17.63;4.53;;;5.40;99.90;;;;;;5014647;28;20427;-55
2023/01/31 02:47:21;;;;;;;19.40;5.00;;;5.20;99.90;;;;;;5014523;28;20892;-55
2023/01/31 02:49:56;;;;;;;12.00;4.00;;;5.10;99.90;;;;;;5014438;28;20462;-55
2023/01/31 02:52:28;;;;;;;16.07;5.07;;;5.10;99.90;;;;;;5014246;28;20448;-56
2023/01/31 02:57:50;;;;;;;17.47;4.43;;;5.10;99.90;;;;;;5014411;28;20403;-56
2023/01/31 03:00:19;;;;;;;19.27;4.93;;;5.10;99.90;;;;;;5013864;28;20440;-58
2023/01/31 03:02:46;;;;;;;20.70;4.57;;;5.10;99.90;;;;;;5014004;28;20482;-58
2023/01/31 03:05:19;;;;;;;24.77;4.47;;;5.00;99.90;;;;;;5014117;28;20455;-56
2023/01/31 03:07:50;;;;;;;12.03;4.00;;;5.10;99.90;;;;;;5014302;28;20440;-56
2023/01/31 03:10:36;;;;;;;12.60;4.70;;;4.90;99.90;;;;;;5014012;28;20439;-55
2023/01/31 03:13:19;;;;;;;23.70;5.37;;;4.80;99.90;;;;;;5013956;28;20470;-56
2023/01/31 03:18:47;;;;;;;22.77;4.80;;;4.80;99.90;;;;;;5012603;28;20411;-56
2023/01/31 03:21:18;;;;;;;17.47;4.07;;;4.80;99.90;;;;;;5014216;28;20442;-56
2023/01/31 03:23:51;;;;;;;14.93;4.33;;;4.70;99.90;;;;;;5013770;28;20495;-56
2023/01/31 03:26:19;;;;;;;12.73;4.40;;;4.80;99.90;;;;;;5013856;28;20448;-55
2023/01/31 03:28:53;;;;;;;16.60;4.97;;;4.80;99.90;;;;;;5013891;28;20491;-55
2023/01/31 03:31:23;;;;;;;18.10;4.97;;;4.70;99.90;;;;;;5013771;28;20890;-56
2023/01/31 03:33:52;;;;;;;15.53;5.13;;;4.80;99.90;;;;;;5013480;28;20839;-56
2023/01/31 03:36:28;;;;;;;21.63;5.43;;;4.80;99.90;;;;;;5013747;28;20451;-56
2023/01/31 03:39:03;;;;;;;13.83;4.80;;;4.80;99.90;;;;;;5013666;28;20458;-56
2023/01/31 03:41:34;;;;;;;25.00;6.00;;;4.80;99.90;;;;;;5013732;28;20444;-56
2023/01/31 03:44:06;;;;;;;19.17;5.30;;;4.80;99.90;;;;;;5013567;28;20506;-56
2023/01/31 03:46:37;;;;;;;20.70;5.40;;;4.80;99.90;;;;;;5013599;28;20435;-56
2023/01/31 03:49:08;;;;;;;20.60;5.80;;;4.80;99.90;;;;;;5013655;28;20438;-56
2023/01/31 03:51:41;;;;;;;15.90;5.67;;;4.60;99.90;;;;;;5013652;28;20435;-56
2023/01/31 03:54:13;;;;;;;15.50;5.53;;;4.60;99.90;;;;;;5013516;28;20829;-56
2023/01/31 03:56:45;;;;;;;25.23;7.23;;;4.60;99.90;;;;;;5013567;28;20436;-56
2023/01/31 03:59:15;;;;;;;24.90;6.70;;;4.60;99.90;;;;;;5013604;28;20431;-55
2023/01/31 04:01:48;;;;;;;50.80;9.80;;;4.60;99.90;;;;;;5013535;28;20432;-56
2023/01/31 04:04:17;;;;;;;19.93;7.43;;;4.60;99.90;;;;;;5011964;28;20497;-56
2023/01/31 04:06:46;;;;;;;21.97;6.50;;;4.60;99.90;;;;;;5013415;28;20453;-56
2023/01/31 04:09:13;;;;;;;24.70;6.07;;;4.60;99.90;;;;;;5013168;28;20451;-56
2023/01/31 04:11:41;;;;;;;25.57;6.77;;;4.50;99.90;;;;;;5013417;28;20438;-56
2023/01/31 04:14:10;;;;;;;21.20;7.73;;;4.60;99.90;;;;;;5012953;28;21001;-56
2023/01/31 04:16:36;;;;;;;18.57;7.63;;;4.60;99.90;;;;;;5013318;28;20458;-57
2023/01/31 04:19:04;;;;;;;20.53;6.87;;;4.60;99.90;;;;;;5013470;28;20444;-56
2023/01/31 04:21:31;;;;;;;23.43;8.33;;;4.60;99.90;;;;;;5013357;28;20455;-57
2023/01/31 04:23:59;;;;;;;22.23;7.90;;;4.70;99.90;;;;;;5013063;28;20498;-56
2023/01/31 04:26:26;;;;;;;27.10;9.40;;;4.70;99.90;;;;;;5013313;28;20442;-56
2023/01/31 04:28:53;;;;;;;26.40;8.33;;;4.70;99.90;;;;;;5013763;28;20453;-56
2023/01/31 04:31:19;;;;;;;19.23;8.20;;;4.70;99.90;;;;;;5017047;28;20465;-56
2023/01/31 04:33:46;;;;;;;23.37;8.50;;;4.70;99.90;;;;;;5016824;28;20662;-55
2023/01/31 04:36:13;;;;;;;29.97;9.17;;;4.70;99.90;;;;;;5016941;28;20830;-56
2023/01/31 04:38:40;;;;;;;19.93;9.07;;;4.80;99.90;;;;;;5016474;28;20458;-56
2023/01/31 04:41:09;;;;;;;18.07;8.10;;;4.70;99.90;;;;;;5016610;28;20534;-56
2023/01/31 04:43:36;;;;;;;21.00;8.33;;;4.70;99.90;;;;;;5016846;28;20492;-56
2023/01/31 04:46:03;;;;;;;18.30;8.10;;;4.70;99.90;;;;;;5015572;28;20476;-55
2023/01/31 04:48:30;;;;;;;26.80;9.37;;;4.80;99.90;;;;;;5016678;28;20446;-56
2023/01/31 04:50:56;;;;;;;33.50;11.03;;;4.70;99.90;;;;;;5016699;28;20451;-56
2023/01/31 04:53:23;;;;;;;31.13;9.53;;;4.70;99.90;;;;;;5016564;28;20493;-56
2023/01/31 04:55:53;;;;;;;23.00;9.67;;;4.70;99.90;;;;;;5016673;28;20481;-56
2023/01/31 04:58:22;;;;;;;20.73;9.87;;;4.70;99.90;;;;;;5016963;28;20457;-57
2023/01/31 05:00:49;;;;;;;28.87;9.97;;;4.70;99.90;;;;;;5016907;28;20452;-57
2023/01/31 05:03:16;;;;;;;33.33;11.00;;;4.70;99.90;;;;;;5017188;28;20474;-56
2023/01/31 05:05:43;;;;;;;28.47;10.20;;;4.60;99.90;;;;;;5017076;28;20430;-57
2023/01/31 05:08:10;;;;;;;26.17;11.07;;;4.60;99.90;;;;;;5017400;28;20444;-57
2023/01/31 05:10:36;;;;;;;20.77;11.27;;;4.70;99.90;;;;;;5017733;28;20447;-57
2023/01/31 05:13:03;;;;;;;34.83;9.90;;;4.70;99.90;;;;;;5017371;28;20461;-57
2023/01/31 05:15:32;;;;;;;25.60;9.70;;;4.80;99.90;;;;;;5016711;28;20849;-57
2023/01/31 05:18:01;;;;;;;26.67;9.60;;;4.70;99.90;;;;;;5016992;28;20497;-56
2023/01/31 05:20:29;;;;;;;26.80;10.30;;;4.70;99.90;;;;;;5016946;28;20450;-56
2023/01/31 05:22:56;;;;;;;27.07;10.73;;;4.80;99.90;;;;;;5016540;28;21029;-56
2023/01/31 05:25:23;;;;;;;36.00;9.93;;;4.80;99.90;;;;;;5015212;28;20477;-57
2023/01/31 05:27:50;;;;;;;24.67;9.73;;;4.80;99.90;;;;;;5015001;28;20443;-57
2023/01/31 05:30:17;;;;;;;30.27;9.90;;;4.90;99.90;;;;;;5016007;28;20462;-57
2023/01/31 05:32:47;;;;;;;25.33;9.17;;;4.90;99.90;;;;;;5015867;28;20514;-57
2023/01/31 05:35:15;;;;;;;22.50;8.80;;;5.00;99.90;;;;;;5015795;28;20441;-57
2023/01/31 05:37:42;;;;;;;21.80;9.33;;;5.00;99.90;;;;;;5015728;28;20477;-57
2023/01/31 05:40:10;;;;;;;30.67;9.60;;;5.00;99.90;;;;;;5015222;28;20453;-57
2023/01/31 05:42:37;;;;;;;19.30;9.20;;;5.00;99.90;;;;;;5015703;28;20847;-56
2023/01/31 05:45:05;;;;;;;29.97;10.27;;;5.00;99.90;;;;;;5015469;28;20476;-57
2023/01/31 05:47:32;;;;;;;33.50;9.97;;;4.90;99.90;;;;;;5015550;28;20446;-57
2023/01/31 05:50:00;;;;;;;25.60;11.03;;;4.90;99.90;;;;;;5015517;28;20445;-56
2023/01/31 05:52:27;;;;;;;23.57;9.07;;;5.00;99.90;;;;;;5015539;28;21021;-57
2023/01/31 05:54:54;;;;;;;30.67;9.77;;;5.00;99.90;;;;;;5015392;28;20443;-57
2023/01/31 05:57:20;;;;;;;24.17;8.70;;;5.00;99.90;;;;;;5015348;28;20536;-57
2023/01/31 05:59:47;;;;;;;28.63;9.77;;;5.10;99.90;;;;;;5015616;28;20458;-57
2023/01/31 06:02:14;;;;;;;25.10;8.47;;;5.00;99.90;;;;;;5015230;28;20458;-57
2023/01/31 06:04:41;;;;;;;29.27;9.07;;;5.00;99.90;;;;;;5015341;28;20496;-56
2023/01/31 06:07:09;;;;;;;26.30;8.33;;;5.00;99.90;;;;;;5015170;28;20454;-55
2023/01/31 06:09:37;;;;;;;25.80;8.70;;;5.00;99.90;;;;;;5015397;28;20443;-56
2023/01/31 06:12:04;;;;;;;26.53;7.20;;;5.00;99.90;;;;;;5015290;28;20458;-58
2023/01/31 06:14:31;;;;;;;23.93;6.50;;;5.00;99.90;;;;;;5014653;28;20466;-56
2023/01/31 06:16:58;;;;;;;15.53;6.90;;;5.00;99.90;;;;;;5015074;28;20828;-56
2023/01/31 06:19:25;;;;;;;21.00;7.60;;;5.10;99.90;;;;;;5014983;28;20461;-56
2023/01/31 06:21:51;;;;;;;23.63;7.10;;;5.10;99.90;;;;;;5014841;28;20465;-56
2023/01/31 06:24:20;;;;;;;30.07;9.30;;;5.00;99.90;;;;;;5014701;28;20498;-56
2023/01/31 06:26:46;;;;;;;21.10;7.40;;;5.10;99.90;;;;;;5014774;28;20887;-55
2023/01/31 06:29:13;;;;;;;29.97;9.90;;;5.00;99.90;;;;;;5014540;28;20463;-55
2023/01/31 06:31:43;;;;;;;24.47;6.20;;;5.10;99.90;;;;;;5014804;28;20428;-56
2023/01/31 06:34:09;;;;;;;20.30;7.77;;;5.00;99.90;;;;;;5014684;28;20470;-56
2023/01/31 06:36:36;;;;;;;21.80;6.97;;;5.00;99.90;;;;;;5014905;28;20436;-56
2023/01/31 06:39:03;;;;;;;16.03;5.67;;;5.00;99.90;;;;;;5014269;28;20451;-57
2023/01/31 06:41:31;;;;;;;18.67;5.70;;;4.90;99.90;;;;;;5014353;28;20520;-56
2023/01/31 06:43:58;;;;;;;16.40;4.27;;;4.90;99.90;;;;;;5014205;28;20470;-56
2023/01/31 06:46:25;;;;;;;13.80;5.37;;;4.90;99.90;;;;;;5017653;28;20457;-57
2023/01/31 06:48:52;;;;;;;13.63;5.07;;;4.90;99.90;;;;;;5032954;28;20453;-56
2023/01/31 06:51:18;;;;;;;14.43;5.60;;;5.00;99.90;;;;;;5033603;28;20459;-56
2023/01/31 06:53:45;;;;;;;16.47;5.10;;;4.90;99.90;;;;;;5033840;28;20474;-57
2023/01/31 06:56:12;;;;;;;13.40;5.20;;;5.00;99.90;;;;;;5034043;28;20431;-56
2023/01/31 06:58:40;;;;;;;20.27;6.10;;;5.00;99.90;;;;;;5033068;28;20443;-56
2023/01/31 07:01:08;;;;;;;11.93;5.00;;;5.00;99.90;;;;;;5034168;28;20908;-56
2023/01/31 07:03:35;;;;;;;18.40;5.60;;;5.00;99.90;;;;;;5033856;28;20473;-56
2023/01/31 07:06:02;;;;;;;15.80;5.50;;;5.00;99.90;;;;;;5033536;28;20478;-56
2023/01/31 07:08:29;;;;;;;17.77;5.13;;;5.00;99.90;;;;;;5033845;28;20439;-56
2023/01/31 07:10:57;;;;;;;19.90;5.00;;;5.00;99.90;;;;;;5034092;28;20513;-56
2023/01/31 07:13:23;;;;;;;14.10;5.47;;;5.00;99.90;;;;;;5033764;28;20467;-56
2023/01/31 07:15:52;;;;;;;11.40;5.13;;;5.00;99.90;;;;;;5033912;28;20430;-56
2023/01/31 07:18:19;;;;;;;18.70;5.53;;;5.00;99.90;;;;;;5034106;28;20434;-55
2023/01/31 07:20:45;;;;;;;14.40;4.93;;;5.00;99.90;;;;;;5033776;28;20444;-56
2023/01/31 07:23:12;;;;;;;14.20;4.53;;;5.00;99.90;;;;;;5033531;28;20462;-56
2023/01/31 07:25:39;;;;;;;14.03;4.50;;;5.00;99.90;;;;;;5033555;28;20469;-56
2023/01/31 07:28:06;;;;;;;17.37;5.40;;;5.10;99.90;;;;;;5033572;28;20434;-56
2023/01/31 07:30:33;;;;;;;15.90;5.40;;;5.10;99.90;;;;;;5033622;28;20449;-56
2023/01/31 07:33:01;;;;;;;14.83;4.43;;;5.10;99.90;;;;;;5033488;28;20469;-56
2023/01/31 07:35:28;;;;;;;23.67;5.70;;;5.20;99.90;;;;;;5033691;28;20447;-56
2023/01/31 07:37:55;;;;;;;14.57;4.30;;;5.10;99.90;;;;;;5033407;28;20463;-56
2023/01/31 07:40:22;;;;;;;17.40;4.50;;;5.20;99.90;;;;;;5032997;28;20451;-56
2023/01/31 07:42:49;;;;;;;25.87;5.53;;;5.20;99.90;;;;;;5033386;28;20458;-57
2023/01/31 07:45:16;;;;;;;15.80;5.17;;;5.20;99.90;;;;;;5033102;28;20997;-56
2023/01/31 07:47:43;;;;;;;14.23;4.87;;;5.20;99.90;;;;;;5033636;28;20443;-57
2023/01/31 07:50:13;;;;;;;14.63;4.77;;;5.30;99.90;;;;;;5033141;28;20798;-56
2023/01/31 07:52:40;;;;;;;15.90;4.50;;;5.30;99.90;;;;;;5033322;28;20479;-57
2023/01/31 07:55:08;;;;;;;13.50;3.90;;;5.30;99.90;;;;;;5033300;28;20549;-56
2023/01/31 07:57:35;;;;;;;10.87;3.33;;;5.30;99.90;;;;;;5033406;28;20470;-56
2023/01/31 08:00:02;;;;;;;14.63;4.50;;;5.30;99.90;;;;;;5033304;28;20468;-56
2023/01/31 08:05:14;;;;;;;9.83;3.63;;;5.50;99.90;;;;;;5037191;28;20545;-57
2023/01/31 08:07:41;;;;;;;17.23;4.33;;;5.50;99.90;;;;;;5037023;28;20426;-56
2023/01/31 08:10:09;;;;;;;17.07;4.63;;;5.50;99.90;;;;;;5037054;28;20452;-56
2023/01/31 08:12:35;;;;;;;13.03;3.40;;;5.60;99.90;;;;;;5037444;28;20481;-56
2023/01/31 08:15:02;;;;;;;13.40;3.47;;;5.60;99.90;;;;;;5021498;28;20485;-56
2023/01/31 08:17:29;;;;;;;13.43;5.00;;;5.70;99.90;;;;;;5017687;28;20442;-56
2023/01/31 08:19:56;;;;;;;10.90;4.50;;;5.70;99.90;;;;;;5017540;28;20439;-56
2023/01/31 08:22:24;;;;;;;15.10;3.93;;;5.70;99.90;;;;;;5017493;28;20435;-56
2023/01/31 08:24:51;;;;;;;14.40;3.57;;;5.80;99.90;;;;;;5017227;28;20487;-56
2023/01/31 08:27:18;;;;;;;15.23;4.13;;;5.80;99.90;;;;;;5017219;28;20531;-56
2023/01/31 08:29:45;;;;;;;23.97;4.53;;;5.90;99.90;;;;;;5017803;28;20438;-55
2023/01/31 08:32:12;;;;;;;18.90;4.83;;;5.90;99.90;;;;;;5017202;28;20435;-56
2023/01/31 08:34:38;;;;;;;12.60;3.60;;;5.90;99.90;;;;;;5017031;28;20590;-55
2023/01/31 08:37:05;;;;;;;16.07;4.50;;;5.90;99.90;;;;;;5016954;28;20458;-55
2023/01/31 08:39:33;;;;;;;14.00;3.27;;;5.90;99.90;;;;;;5017035;28;20942;-55
2023/01/31 08:42:00;;;;;;;8.00;3.07;;;5.90;99.90;;;;;;5017028;28;20439;-55
2023/01/31 08:44:27;;;;;;;18.33;3.90;;;5.90;99.90;;;;;;5017034;28;20490;-56
2023/01/31 08:46:54;;;;;;;7.77;3.60;;;5.90;99.90;;;;;;5016837;28;20444;-56
2023/01/31 08:49:21;;;;;;;10.67;4.37;;;6.00;99.90;;;;;;5016746;28;20439;-56
2023/01/31 08:51:47;;;;;;;20.83;3.80;;;5.90;99.90;;;;;;5017015;28;20448;-55
2023/01/31 08:54:15;;;;;;;12.07;4.40;;;5.90;99.90;;;;;;5016709;28;20475;-55
2023/01/31 08:56:43;;;;;;;17.33;4.00;;;5.90;99.90;;;;;;5016589;28;20500;-55
2023/01/31 08:59:10;;;;;;;15.17;4.10;;;5.90;99.90;;;;;;5016750;28;20451;-54
2023/01/31 09:01:37;;;;;;;16.70;5.13;;;5.90;99.90;;;;;;5016676;28;20455;-54
2023/01/31 09:04:04;;;;;;;13.17;3.67;;;5.90;99.90;;;;;;5016391;28;20837;-55
2023/01/31 09:06:31;;;;;;;11.83;3.90;;;5.90;99.90;;;;;;5016052;28;20489;-55
2023/01/31 09:08:58;;;;;;;10.60;4.10;;;5.90;99.90;;;;;;5016173;28;20451;-55
2023/01/31 09:11:28;;;;;;;17.10;5.03;;;6.00;99.90;;;;;;5016188;28;20456;-54
2023/01/31 09:13:57;;;;;;;11.87;3.87;;;6.00;99.90;;;;;;5015799;28;20479;-54
2023/01/31 09:16:24;;;;;;;9.70;4.70;;;6.00;99.90;;;;;;5015157;28;20904;-55
2023/01/31 09:18:50;;;;;;;13.93;5.00;;;6.00;99.90;;;;;;5016095;28;20451;-55
2023/01/31 09:21:19;;;;;;;21.27;3.57;;;6.10;99.90;;;;;;5016018;28;20455;-54
2023/01/31 09:23:47;;;;;;;10.60;4.10;;;6.10;99.90;;;;;;5015930;28;20551;-55
2023/01/31 09:26:15;;;;;;;16.10;4.63;;;6.10;99.90;;;;;;5015835;28;20494;-55
2023/01/31 09:28:42;;;;;;;25.83;4.57;;;6.10;99.90;;;;;;5015936;28;20800;-55
2023/01/31 09:31:13;;;;;;;15.30;3.80;;;6.10;99.90;;;;;;5015872;28;20517;-55
2023/01/31 09:33:40;;;;;;;12.17;4.57;;;6.20;99.90;;;;;;5015863;28;20480;-55
2023/01/31 09:36:09;;;;;;;14.17;4.77;;;6.20;99.90;;;;;;5016043;28;20433;-55
2023/01/31 09:38:36;;;;;;;15.43;4.43;;;6.30;99.90;;;;;;5015522;28;20459;-55
2023/01/31 09:41:05;;;;;;;17.30;5.40;;;6.20;99.90;;;;;;5015625;28;20443;-55
2023/01/31 09:43:38;;;;;;;15.60;4.40;;;6.30;99.90;;;;;;5015511;28;20477;-55
2023/01/31 09:46:09;;;;;;;13.37;3.63;;;6.30;99.90;;;;;;5015533;28;20471;-55
2023/01/31 09:48:42;;;;;;;14.97;4.70;;;6.30;99.90;;;;;;5015545;28;20451;-55
2023/01/31 09:51:12;;;;;;;15.90;5.23;;;6.40;99.90;;;;;;5015539;28;20513;-55
2023/01/31 09:53:41;;;;;;;15.43;4.00;;;6.40;99.90;;;;;;5015346;28;20472;-55
2023/01/31 09:56:24;;;;;;;15.83;4.47;;;6.40;99.90;;;;;;5015452;28;20435;-55
2023/01/31 09:58:59;;;;;;;20.53;4.03;;;6.40;99.90;;;;;;5015986;28;20444;-55
2023/01/31 10:01:32;;;;;;;17.33;4.80;;;6.40;99.90;;;;;;5014097;28;20434;-55
2023/01/31 10:04:17;;;;;;;17.03;4.50;;;6.40;99.90;;;;;;5015491;28;20486;-55
2023/01/31 10:06:49;;;;;;;20.43;5.60;;;6.60;99.90;;;;;;5015051;28;20840;-55
2023/01/31 10:09:23;;;;;;;11.73;4.60;;;6.60;99.90;;;;;;5015400;28;20439;-55
2023/01/31 10:11:54;;;;;;;25.80;5.10;;;6.50;99.90;;;;;;5015270;28;20442;-55
2023/01/31 10:14:28;;;;;;;18.27;4.40;;;6.50;99.90;;;;;;5015038;28;20468;-55
2023/01/31 10:17:02;;;;;;;12.00;4.47;;;6.60;99.90;;;;;;5015217;28;20440;-56
2023/01/31 10:19:39;;;;;;;17.47;5.30;;;6.70;99.90;;;;;;5014806;28;20908;-55
2023/01/31 10:22:10;;;;;;;16.37;5.60;;;6.70;99.90;;;;;;5015132;28;20442;-54
2023/01/31 10:24:42;;;;;;;19.87;6.00;;;6.80;99.90;;;;;;5014866;28;20471;-54
2023/01/31 10:27:17;;;;;;;16.03;5.00;;;6.80;99.90;;;;;;5014695;28;20471;-54
2023/01/31 10:29:49;;;;;;;14.90;4.70;;;6.70;99.90;;;;;;5014931;28;20779;-54
2023/01/31 10:32:21;;;;;;;16.77;5.50;;;6.80;99.90;;;;;;5014691;28;20443;-54
2023/01/31 10:34:53;;;;;;;20.60;5.57;;;6.80;99.90;;;;;;5014788;28;20467;-55
2023/01/31 10:37:29;;;;;;;18.97;6.70;;;6.90;99.90;;;;;;5014815;28;20428;-54
2023/01/31 10:40:01;;;;;;;18.73;6.00;;;6.90;99.90;;;;;;5014589;28;20452;-54
2023/01/31 10:42:32;;;;;;;21.07;5.00;;;6.90;99.90;;;;;;5014568;28;20440;-54
2023/01/31 10:45:02;;;;;;;12.87;4.83;;;7.00;99.90;;;;;;5014417;28;20436;-54
2023/01/31 10:47:33;;;;;;;22.70;6.13;;;7.00;99.90;;;;;;5014546;28;20433;-54
2023/01/31 10:50:11;;;;;;;17.63;6.57;;;7.10;99.90;;;;;;5014520;28;20436;-54
2023/01/31 10:52:53;;;;;;;9.53;5.57;;;7.10;99.90;;;;;;5014520;28;20500;-54
2023/01/31 10:55:39;;;;;;;25.63;7.83;;;7.10;99.90;;;;;;5014293;28;20956;-54
2023/01/31 10:58:13;;;;;;;12.07;5.37;;;7.20;99.90;;;;;;5014467;28;20428;-54
2023/01/31 11:00:40;;;;;;;13.90;5.53;;;7.20;99.90;;;;;;5014249;28;20432;-54
2023/01/31 11:03:07;;;;;;;13.70;7.03;;;7.40;99.90;;;;;;5014307;28;20511;-54
2023/01/31 11:05:43;;;;;;;14.43;5.67;;;7.50;99.90;;;;;;5013952;28;20832;-54
2023/01/31 11:08:24;;;;;;;14.30;5.43;;;7.50;99.90;;;;;;5014216;28;20434;-54
2023/01/31 11:10:53;;;;;;;14.23;6.00;;;7.50;99.90;;;;;;5014414;28;20433;-54
2023/01/31 11:13:21;;;;;;;21.00;6.50;;;7.40;99.90;;;;;;5013823;28;20480;-54
2023/01/31 11:15:51;;;;;;;15.37;6.60;;;7.40;99.90;;;;;;5012643;28;20429;-54
2023/01/31 11:18:28;;;;;;;16.33;6.47;;;7.40;99.90;;;;;;5014523;28;20445;-54
2023/01/31 11:20:58;;;;;;;15.27;6.33;;;7.40;99.90;;;;;;5013800;28;20441;-54
2023/01/31 11:23:28;;;;;;;13.63;6.00;;;7.40;99.90;;;;;;5014627;28;20479;-54
2023/01/31 11:25:56;;;;;;;21.07;7.00;;;7.40;99.90;;;;;;5013992;28;20471;-56
2023/01/31 11:28:28;;;;;;;14.97;6.27;;;7.40;99.90;;;;;;5014417;28;20460;-55
2023/01/31 11:30:55;;;;;;;13.97;6.90;;;7.30;99.90;;;;;;5014782;28;20447;-55
2023/01/31 11:33:44;;;;;;;12.80;6.63;;;7.30;99.90;;;;;;5014517;28;20496;-55
2023/01/31 11:36:15;;;;;;;16.70;7.30;;;7.20;99.90;;;;;;5014824;28;20846;-55
2023/01/31 11:38:41;;;;;;;17.20;6.50;;;7.20;99.90;;;;;;5014872;28;20474;-56
2023/01/31 11:41:31;;;;;;;21.87;6.67;;;7.10;99.90;;;;;;5015307;28;20440;-55
2023/01/31 11:44:11;;;;;;;13.63;6.40;;;7.10;99.90;;;;;;5015335;28;20471;-55
2023/01/31 11:46:43;;;;;;;11.80;5.73;;;7.20;99.90;;;;;;5014106;28;20468;-55
2023/01/31 11:49:13;;;;;;;12.13;5.70;;;7.20;99.90;;;;;;5014300;28;20455;-55
2023/01/31 11:51:43;;;;;;;9.73;6.13;;;7.20;99.90;;;;;;5014332;28;20455;-54
2023/01/31 11:54:18;;;;;;;14.23;6.00;;;7.10;99.90;;;;;;5014108;28;20484;-54
2023/01/31 11:56:46;;;;;;;15.13;7.00;;;7.10;99.90;;;;;;5014005;28;20436;-54
2023/01/31 11:59:17;;;;;;;11.73;6.40;;;7.10;99.90;;;;;;5013625;28;20442;-55
2023/01/31 12:01:47;;;;;;;11.73;6.30;;;7.20;99.90;;;;;;5013552;28;20436;-55
2023/01/31 12:04:17;;;;;;;14.20;6.50;;;7.20;99.90;;;;;;5013216;28;20996;-55
2023/01/31 12:06:57;;;;;;;17.73;6.57;;;7.20;99.90;;;;;;5013010;28;20471;-55
2023/01/31 12:09:26;;;;;;;11.90;7.27;;;7.20;99.90;;;;;;5013155;28;20946;-55
2023/01/31 12:11:55;;;;;;;17.70;7.10;;;7.30;99.90;;;;;;5012260;28;20443;-55
2023/01/31 12:14:23;;;;;;;9.37;5.87;;;7.30;99.90;;;;;;5013293;28;20579;-55
2023/01/31 12:16:55;;;;;;;18.47;8.13;;;7.30;99.90;;;;;;5013063;28;20948;-55
2023/01/31 12:19:34;;;;;;;16.70;7.60;;;7.30;99.90;;;;;;5013393;28;20428;-55
2023/01/31 12:22:10;;;;;;;17.67;7.60;;;7.30;99.90;;;;;;5013490;28;20440;-55
2023/01/31 12:24:46;;;;;;;18.07;7.50;;;7.30;99.90;;;;;;5013539;28;20471;-55
2023/01/31 12:27:27;;;;;;;16.13;6.60;;;7.30;99.90;;;;;;5012902;28;20471;-55
2023/01/31 12:30:20;;;;;;;15.23;7.00;;;7.30;99.90;;;;;;5013257;28;20441;-55
2023/01/31 12:33:04;;;;;;;18.10;8.83;;;7.40;99.90;;;;;;5012722;28;21006;-57
2023/01/31 12:35:42;;;;;;;12.60;6.50;;;7.40;99.90;;;;;;5013523;28;20437;-55
2023/01/31 12:38:25;;;;;;;23.63;7.70;;;7.40;99.90;;;;;;5012970;28;20475;-54
2023/01/31 12:41:01;;;;;;;14.23;8.43;;;7.40;99.90;;;;;;5013151;28;20433;-55
2023/01/31 12:43:46;;;;;;;14.53;6.67;;;7.40;99.90;;;;;;5013014;28;20482;-54
2023/01/31 12:46:22;;;;;;;10.93;6.23;;;7.40;99.90;;;;;;5013126;28;20464;-55
2023/01/31 12:49:07;;;;;;;19.50;7.20;;;7.40;99.90;;;;;;5013533;28;20441;-55
2023/01/31 12:51:42;;;;;;;13.23;6.83;;;7.50;99.90;;;;;;5016082;28;20455;-55
2023/01/31 12:54:32;;;;;;;17.80;7.40;;;7.40;99.90;;;;;;5016508;28;20474;-55
2023/01/31 12:57:09;;;;;;;17.10;7.53;;;7.50;99.90;;;;;;5016585;28;20547;-56
2023/01/31 12:59:46;;;;;;;20.13;7.67;;;7.50;99.90;;;;;;5016528;28;20530;-55
2023/01/31 13:02:32;;;;;;;22.50;8.23;;;7.50;99.90;;;;;;5016366;28;20429;-55
2023/01/31 13:05:07;;;;;;;15.80;7.10;;;7.50;99.90;;;;;;5016137;28;20920;-55
2023/01/31 13:07:38;;;;;;;10.90;7.40;;;7.50;99.90;;;;;;5015937;28;20485;-55
2023/01/31 13:10:26;;;;;;;15.20;7.33;;;7.50;99.90;;;;;;5016342;28;20441;-55
2023/01/31 13:12:54;;;;;;;17.80;8.90;;;7.50;99.90;;;;;;5015765;28;21018;-55
2023/01/31 13:15:29;;;;;;;16.00;7.57;;;7.60;99.90;;;;;;5016342;28;20460;-55